sensor_id;sensor_type;location;lat;lon;timestamp;pressure;altitude;pressure_sealevel;temperature;humidity
32324;BME280;25666;44.350;9.222;2023-09-18T00:01:04;101688.66;;;21.75;100.00
32324;BME280;25666;44.350;9.222;2023-09-18T00:03:31;101698.38;;;21.81;100.00
32324;BME280;25666;44.350;9.222;2023-09-18T00:05:57;101707.69;;;21.78;100.00
32324;BME280;25666;44.350;9.222;2023-09-18T00:08:22;101712.91;;;21.62;100.00
32324;BME280;25666;44.350;9.222;2023-09-18T00:10:51;101702.38;;;21.42;100.00
32324;BME280;25666;44.350;9.222;2023-09-18T00:13:17;101722.22;;;21.59;100.00
32324;BME280;25666;44.350;9.222;2023-09-18T00:15:43;101726.69;;;21.71;100.00
32324;BME280;25666;44.350;9.222;2023-09-18T00:18:13;101725.09;;;21.70;100.00
32324;BME280;25666;44.350;9.222;2023-09-18T00:20:40;101730.75;;;21.70;100.00
32324;BME280;25666;44.350;9.222;2023-09-18T00:23:07;101726.69;;;21.74;100.00
32324;BME280;25666;44.350;9.222;2023-09-18T00:25:33;101731.97;;;21.72;100.00
32324;BME280;25666;44.350;9.222;2023-09-18T00:27:59;101738.84;;;21.78;100.00
32324;BME280;25666;44.350;9.222;2023-09-18T00:30:24;101736.84;;;21.79;100.00
32324;BME280;25666;44.350;9.222;2023-09-18T00:32:50;101728.72;;;21.77;100.00
32324;BME280;25666;44.350;9.222;2023-09-18T00:35:16;101727.50;;;21.71;100.00
32324;BME280;25666;44.350;9.222;2023-09-18T00:37:41;101715.78;;;21.76;100.00
32324;BME280;25666;44.350;9.222;2023-09-18T00:40:08;101721.47;;;21.80;100.00
32324;BME280;25666;44.350;9.222;2023-09-18T00:42:34;101736.91;;;21.90;100.00
32324;BME280;25666;44.350;9.222;2023-09-18T00:45:00;101736.84;;;21.79;100.00
32324;BME280;25666;44.350;9.222;2023-09-18T00:47:26;101742.09;;;21.73;100.00
32324;BME280;25666;44.350;9.222;2023-09-18T00:49:52;101750.59;;;21.70;100.00
32324;BME280;25666;44.350;9.222;2023-09-18T00:52:19;101742.88;;;21.63;100.00
32324;BME280;25666;44.350;9.222;2023-09-18T00:54:46;101732.38;;;21.64;100.00
32324;BME280;25666;44.350;9.222;2023-09-18T00:57:13;101724.28;;;21.76;100.00
32324;BME280;25666;44.350;9.222;2023-09-18T00:59:39;101691.91;;;21.84;100.00
32324;BME280;25666;44.350;9.222;2023-09-18T01:02:05;101666.81;;;21.90;100.00
32324;BME280;25666;44.350;9.222;2023-09-18T01:04:32;101653.03;;;21.99;100.00
32324;BME280;25666;44.350;9.222;2023-09-18T01:07:01;101634.00;;;22.03;100.00
32324;BME280;25666;44.350;9.222;2023-09-18T01:09:32;101588.63;;;22.03;100.00
32324;BME280;25666;44.350;9.222;2023-09-18T01:12:06;101585.00;;;21.99;100.00
32324;BME280;25666;44.350;9.222;2023-09-18T01:17:24;101629.94;;;21.65;100.00
32324;BME280;25666;44.350;9.222;2023-09-18T01:19:49;101630.75;;;21.55;100.00
32324;BME280;25666;44.350;9.222;2023-09-18T01:22:16;101622.66;;;21.82;100.00
32324;BME280;25666;44.350;9.222;2023-09-18T01:24:44;101623.06;;;21.84;100.00
32324;BME280;25666;44.350;9.222;2023-09-18T01:27:12;101612.56;;;21.92;100.00
32324;BME280;25666;44.350;9.222;2023-09-18T01:29:38;101614.97;;;21.65;100.00
32324;BME280;25666;44.350;9.222;2023-09-18T01:32:05;101620.22;;;21.42;100.00
32324;BME280;25666;44.350;9.222;2023-09-18T01:34:37;101600.41;;;21.42;100.00
32324;BME280;25666;44.350;9.222;2023-09-18T01:37:05;101578.16;;;21.61;100.00
32324;BME280;25666;44.350;9.222;2023-09-18T01:39:34;101585.00;;;21.74;100.00
32324;BME280;25666;44.350;9.222;2023-09-18T01:42:02;101593.13;;;21.83;100.00
32324;BME280;25666;44.350;9.222;2023-09-18T01:44:29;101606.88;;;21.84;100.00
32324;BME280;25666;44.350;9.222;2023-09-18T01:46:59;101634.81;;;21.79;100.00
32324;BME280;25666;44.350;9.222;2023-09-18T01:49:28;101638.88;;;21.88;100.00
32324;BME280;25666;44.350;9.222;2023-09-18T01:51:54;101628.72;;;21.84;100.00
32324;BME280;25666;44.350;9.222;2023-09-18T01:54:19;101644.53;;;21.67;100.00
32324;BME280;25666;44.350;9.222;2023-09-18T01:56:45;101641.69;;;21.78;100.00
32324;BME280;25666;44.350;9.222;2023-09-18T01:59:11;101654.22;;;21.84;100.00
32324;BME280;25666;44.350;9.222;2023-09-18T02:01:36;101664.38;;;21.85;100.00
32324;BME280;25666;44.350;9.222;2023-09-18T02:04:04;101665.19;;;21.85;100.00
32324;BME280;25666;44.350;9.222;2023-09-18T02:06:30;101674.06;;;21.84;100.00
32324;BME280;25666;44.350;9.222;2023-09-18T02:08:55;101696.75;;;21.80;100.00
32324;BME280;25666;44.350;9.222;2023-09-18T02:11:21;101710.13;;;21.80;100.00
32324;BME280;25666;44.350;9.222;2023-09-18T02:13:46;101715.72;;;21.55;100.00
32324;BME280;25666;44.350;9.222;2023-09-18T02:16:12;101707.22;;;21.38;100.00
32324;BME280;25666;44.350;9.222;2023-09-18T02:18:38;101707.25;;;21.52;100.00
32324;BME280;25666;44.350;9.222;2023-09-18T02:21:03;101719.00;;;21.68;100.00
32324;BME280;25666;44.350;9.222;2023-09-18T02:23:29;101729.16;;;21.76;100.00
32324;BME280;25666;44.350;9.222;2023-09-18T02:25:58;101717.41;;;21.81;100.00
32324;BME280;25666;44.350;9.222;2023-09-18T02:28:24;101698.78;;;21.80;100.00
32324;BME280;25666;44.350;9.222;2023-09-18T02:30:50;101674.47;;;21.75;100.00
32324;BME280;25666;44.350;9.222;2023-09-18T02:33:17;101681.78;;;21.76;100.00
32324;BME280;25666;44.350;9.222;2023-09-18T02:35:42;101685.00;;;21.75;100.00
32324;BME280;25666;44.350;9.222;2023-09-18T02:38:08;101692.28;;;21.72;100.00
32324;BME280;25666;44.350;9.222;2023-09-18T02:40:34;101683.00;;;21.61;100.00
32324;BME280;25666;44.350;9.222;2023-09-18T02:43:00;101692.28;;;21.69;100.00
32324;BME280;25666;44.350;9.222;2023-09-18T02:45:27;101701.63;;;21.80;100.00
32324;BME280;25666;44.350;9.222;2023-09-18T02:47:53;101702.00;;;21.78;100.00
32324;BME280;25666;44.350;9.222;2023-09-18T02:50:19;101707.28;;;21.80;100.00
32324;BME280;25666;44.350;9.222;2023-09-18T02:52:44;101702.00;;;21.64;100.00
32324;BME280;25666;44.350;9.222;2023-09-18T02:55:10;101720.25;;;21.74;100.00
32324;BME280;25666;44.350;9.222;2023-09-18T02:57:36;101732.34;;;21.71;100.00
32324;BME280;25666;44.350;9.222;2023-09-18T03:00:03;101723.03;;;21.56;100.00
32324;BME280;25666;44.350;9.222;2023-09-18T03:02:29;101728.72;;;21.67;100.00
32324;BME280;25666;44.350;9.222;2023-09-18T03:04:56;101730.34;;;21.68;100.00
32324;BME280;25666;44.350;9.222;2023-09-18T03:07:21;101723.44;;;21.55;100.00
32324;BME280;25666;44.350;9.222;2023-09-18T03:09:48;101712.53;;;21.64;100.00
32324;BME280;25666;44.350;9.222;2023-09-18T03:12:13;101710.50;;;21.71;100.00
32324;BME280;25666;44.350;9.222;2023-09-18T03:14:39;101725.91;;;21.74;100.00
32324;BME280;25666;44.350;9.222;2023-09-18T03:17:05;101726.31;;;21.76;100.00
32324;BME280;25666;44.350;9.222;2023-09-18T03:19:31;101724.69;;;21.75;100.00
32324;BME280;25666;44.350;9.222;2023-09-18T03:21:56;101712.53;;;21.67;100.00
32324;BME280;25666;44.350;9.222;2023-09-18T03:24:22;101707.66;;;21.61;100.00
32324;BME280;25666;44.350;9.222;2023-09-18T03:26:47;101701.22;;;21.67;100.00
32324;BME280;25666;44.350;9.222;2023-09-18T03:29:14;101702.81;;;21.75;100.00
32324;BME280;25666;44.350;9.222;2023-09-18T03:31:40;101701.63;;;21.73;100.00
32324;BME280;25666;44.350;9.222;2023-09-18T03:34:06;101701.19;;;21.64;100.00
32324;BME280;25666;44.350;9.222;2023-09-18T03:36:31;101709.31;;;21.76;100.00
32324;BME280;25666;44.350;9.222;2023-09-18T03:38:58;101709.72;;;21.81;100.00
32324;BME280;25666;44.350;9.222;2023-09-18T03:41:24;101709.72;;;21.81;100.00
32324;BME280;25666;44.350;9.222;2023-09-18T03:43:50;101715.00;;;21.90;100.00
32324;BME280;25666;44.350;9.222;2023-09-18T03:46:15;101720.28;;;21.95;100.00
32324;BME280;25666;44.350;9.222;2023-09-18T03:48:45;101725.97;;;21.95;100.00
32324;BME280;25666;44.350;9.222;2023-09-18T03:51:12;101734.84;;;21.94;100.00
32324;BME280;25666;44.350;9.222;2023-09-18T03:53:41;101740.47;;;21.86;100.00
32324;BME280;25666;44.350;9.222;2023-09-18T03:56:07;101751.00;;;21.72;100.00
32324;BME280;25666;44.350;9.222;2023-09-18T03:58:32;101762.72;;;21.67;100.00
32324;BME280;25666;44.350;9.222;2023-09-18T04:00:58;101763.13;;;21.69;100.00
32324;BME280;25666;44.350;9.222;2023-09-18T04:03:23;101754.22;;;21.77;100.00
32324;BME280;25666;44.350;9.222;2023-09-18T04:05:49;101745.75;;;21.81;100.00
32324;BME280;25666;44.350;9.222;2023-09-18T04:08:14;101723.06;;;21.88;100.00
32324;BME280;25666;44.350;9.222;2023-09-18T04:10:40;101719.03;;;21.82;100.00
32324;BME280;25666;44.350;9.222;2023-09-18T04:13:06;101719.88;;;21.90;100.00
32324;BME280;25666;44.350;9.222;2023-09-18T04:15:31;101717.41;;;21.81;100.00
32324;BME280;25666;44.350;9.222;2023-09-18T04:17:57;101711.72;;;21.77;100.00
32324;BME280;25666;44.350;9.222;2023-09-18T04:20:22;101705.66;;;21.75;100.00
32324;BME280;25666;44.350;9.222;2023-09-18T04:23:20;101701.22;;;21.85;100.00
32324;BME280;25666;44.350;9.222;2023-09-18T04:25:47;101695.56;;;21.88;100.00
32324;BME280;25666;44.350;9.222;2023-09-18T04:28:14;101692.75;;;21.88;100.00
32324;BME280;25666;44.350;9.222;2023-09-18T04:30:40;101685.03;;;21.85;100.00
32324;BME280;25666;44.350;9.222;2023-09-18T04:33:06;101687.09;;;21.92;100.00
32324;BME280;25666;44.350;9.222;2023-09-18T04:35:32;101690.31;;;21.91;100.00
32324;BME280;25666;44.350;9.222;2023-09-18T04:37:59;101693.97;;;21.98;100.00
32324;BME280;25666;44.350;9.222;2023-09-18T04:40:25;101702.03;;;21.85;100.00
32324;BME280;25666;44.350;9.222;2023-09-18T04:42:52;101701.63;;;21.76;100.00
32324;BME280;25666;44.350;9.222;2023-09-18T04:45:18;101693.50;;;21.71;100.00
32324;BME280;25666;44.350;9.222;2023-09-18T04:47:44;101693.91;;;21.87;100.00
32324;BME280;25666;44.350;9.222;2023-09-18T04:50:10;101681.81;;;21.91;100.00
32324;BME280;25666;44.350;9.222;2023-09-18T04:52:36;101665.22;;;21.89;100.00
32324;BME280;25666;44.350;9.222;2023-09-18T04:55:02;101651.03;;;21.89;100.00
32324;BME280;25666;44.350;9.222;2023-09-18T04:57:28;101685.41;;;21.87;100.00
32324;BME280;25666;44.350;9.222;2023-09-18T04:59:54;101693.16;;;21.94;100.00
32324;BME280;25666;44.350;9.222;2023-09-18T05:02:19;101691.91;;;22.09;100.00
32324;BME280;25666;44.350;9.222;2023-09-18T05:04:45;101683.41;;;22.09;100.00
32324;BME280;25666;44.350;9.222;2023-09-18T05:07:10;101670.88;;;22.14;100.00
32324;BME280;25666;44.350;9.222;2023-09-18T05:09:36;101691.09;;;22.16;100.00
32324;BME280;25666;44.350;9.222;2023-09-18T05:12:04;101687.44;;;22.26;100.00
32324;BME280;25666;44.350;9.222;2023-09-18T05:14:30;101672.44;;;22.25;100.00
32324;BME280;25666;44.350;9.222;2023-09-18T05:16:55;101650.97;;;22.24;100.00
32324;BME280;25666;44.350;9.222;2023-09-18T05:19:21;101640.44;;;22.25;100.00
32324;BME280;25666;44.350;9.222;2023-09-18T05:21:47;101666.00;;;22.14;100.00
32324;BME280;25666;44.350;9.222;2023-09-18T05:24:13;101668.03;;;22.17;100.00
32324;BME280;25666;44.350;9.222;2023-09-18T05:26:39;101670.84;;;22.21;100.00
32324;BME280;25666;44.350;9.222;2023-09-18T05:29:04;101669.63;;;22.25;100.00
32324;BME280;25666;44.350;9.222;2023-09-18T05:31:30;101664.38;;;22.17;100.00
32324;BME280;25666;44.350;9.222;2023-09-18T05:33:55;101665.19;;;22.17;100.00
32324;BME280;25666;44.350;9.222;2023-09-18T05:36:21;101664.75;;;22.12;100.00
32324;BME280;25666;44.350;9.222;2023-09-18T05:38:47;101665.19;;;21.96;100.00
32324;BME280;25666;44.350;9.222;2023-09-18T05:41:12;101658.31;;;21.90;100.00
32324;BME280;25666;44.350;9.222;2023-09-18T05:43:38;101667.22;;;22.13;100.00
32324;BME280;25666;44.350;9.222;2023-09-18T05:46:03;101670.88;;;22.07;100.00
32324;BME280;25666;44.350;9.222;2023-09-18T05:48:29;101666.38;;;22.23;100.00
32324;BME280;25666;44.350;9.222;2023-09-18T05:50:55;101663.13;;;22.21;100.00
32324;BME280;25666;44.350;9.222;2023-09-18T05:53:20;101659.91;;;22.19;100.00
32324;BME280;25666;44.350;9.222;2023-09-18T05:55:47;101660.72;;;22.23;100.00
32324;BME280;25666;44.350;9.222;2023-09-18T05:58:13;101648.94;;;22.28;100.00
32324;BME280;25666;44.350;9.222;2023-09-18T06:00:39;101638.03;;;22.16;100.00
32324;BME280;25666;44.350;9.222;2023-09-18T06:03:05;101625.88;;;22.09;100.00
32324;BME280;25666;44.350;9.222;2023-09-18T06:05:31;101628.34;;;22.03;100.00
32324;BME280;25666;44.350;9.222;2023-09-18T06:07:59;101629.56;;;21.99;100.00
32324;BME280;25666;44.350;9.222;2023-09-18T06:10:25;101628.31;;;22.07;100.00
32324;BME280;25666;44.350;9.222;2023-09-18T06:12:51;101635.19;;;22.13;100.00
32324;BME280;25666;44.350;9.222;2023-09-18T06:15:16;101642.50;;;21.96;100.00
32324;BME280;25666;44.350;9.222;2023-09-18T06:17:43;101640.88;;;22.06;100.00
32324;BME280;25666;44.350;9.222;2023-09-18T06:20:10;101646.94;;;22.15;100.00
32324;BME280;25666;44.350;9.222;2023-09-18T06:22:37;101623.88;;;22.13;100.00
32324;BME280;25666;44.350;9.222;2023-09-18T06:25:07;101623.03;;;22.16;100.00
32324;BME280;25666;44.350;9.222;2023-09-18T06:27:36;101626.69;;;22.23;100.00
32324;BME280;25666;44.350;9.222;2023-09-18T06:30:02;101634.75;;;22.28;100.00
32324;BME280;25666;44.350;9.222;2023-09-18T06:32:29;101631.16;;;22.17;100.00
32324;BME280;25666;44.350;9.222;2023-09-18T06:34:54;101627.50;;;22.10;100.00
32324;BME280;25666;44.350;9.222;2023-09-18T06:37:20;101625.88;;;22.19;100.00
32324;BME280;25666;44.350;9.222;2023-09-18T06:39:46;101627.06;;;22.25;100.00
32324;BME280;25666;44.350;9.222;2023-09-18T06:42:11;101627.84;;;22.40;100.00
32324;BME280;25666;44.350;9.222;2023-09-18T06:44:37;101633.50;;;22.40;100.00
32324;BME280;25666;44.350;9.222;2023-09-18T06:47:03;101626.63;;;22.41;100.00
32324;BME280;25666;44.350;9.222;2023-09-18T06:49:29;101626.63;;;22.45;100.00
32324;BME280;25666;44.350;9.222;2023-09-18T06:51:56;101626.63;;;22.45;100.00
32324;BME280;25666;44.350;9.222;2023-09-18T06:54:22;101639.97;;;22.51;100.00
32324;BME280;25666;44.350;9.222;2023-09-18T06:56:47;101642.38;;;22.56;100.00
32324;BME280;25666;44.350;9.222;2023-09-18T06:59:13;101644.00;;;22.64;100.00
32324;BME280;25666;44.350;9.222;2023-09-18T07:01:39;101648.50;;;22.51;100.00
32324;BME280;25666;44.350;9.222;2023-09-18T07:04:06;101647.66;;;22.58;100.00
32324;BME280;25666;44.350;9.222;2023-09-18T07:06:31;101647.19;;;22.80;100.00
32324;BME280;25666;44.350;9.222;2023-09-18T07:08:57;101643.06;;;22.96;100.00
32324;BME280;25666;44.350;9.222;2023-09-18T07:11:22;101650.28;;;23.11;100.00
32324;BME280;25666;44.350;9.222;2023-09-18T07:13:48;101646.25;;;23.08;100.00
32324;BME280;25666;44.350;9.222;2023-09-18T07:16:14;101643.06;;;22.99;100.00
32324;BME280;25666;44.350;9.222;2023-09-18T07:18:39;101641.81;;;23.00;100.00
32324;BME280;25666;44.350;9.222;2023-09-18T07:21:05;101626.44;;;22.90;100.00
32324;BME280;25666;44.350;9.222;2023-09-18T07:23:30;101624.38;;;22.98;100.00
32324;BME280;25666;44.350;9.222;2023-09-18T07:25:56;101633.75;;;22.91;100.00
32324;BME280;25666;44.350;9.222;2023-09-18T07:28:24;101630.44;;;23.00;100.00
32324;BME280;25666;44.350;9.222;2023-09-18T07:30:50;101633.63;;;23.13;100.00
32324;BME280;25666;44.350;9.222;2023-09-18T07:33:15;101635.97;;;23.25;100.00
32324;BME280;25666;44.350;9.222;2023-09-18T07:35:49;101632.09;;;23.63;100.00
32324;BME280;25666;44.350;9.222;2023-09-18T07:38:17;101630.97;;;23.46;100.00
32324;BME280;25666;44.350;9.222;2023-09-18T07:40:47;101634.25;;;23.45;100.00
32324;BME280;25666;44.350;9.222;2023-09-18T07:43:13;101632.25;;;23.38;100.00
32324;BME280;25666;44.350;9.222;2023-09-18T07:45:39;101633.47;;;23.41;100.00
32324;BME280;25666;44.350;9.222;2023-09-18T07:48:06;101642.56;;;23.73;100.00
32324;BME280;25666;44.350;9.222;2023-09-18T07:50:32;101630.78;;;24.19;100.00
32324;BME280;25666;44.350;9.222;2023-09-18T07:52:59;101634.56;;;24.06;100.00
32324;BME280;25666;44.350;9.222;2023-09-18T07:55:24;101633.03;;;23.94;100.00
32324;BME280;25666;44.350;9.222;2023-09-18T07:57:51;101630.53;;;23.99;100.00
32324;BME280;25666;44.350;9.222;2023-09-18T08:00:17;101620.41;;;23.98;100.00
32324;BME280;25666;44.350;9.222;2023-09-18T08:02:42;101636.22;;;23.99;100.00
32324;BME280;25666;44.350;9.222;2023-09-18T08:05:08;101639.19;;;23.89;100.00
32324;BME280;25666;44.350;9.222;2023-09-18T08:07:35;101657.09;;;23.82;100.00
32324;BME280;25666;44.350;9.222;2023-09-18T08:10:02;101662.34;;;23.84;100.00
32324;BME280;25666;44.350;9.222;2023-09-18T08:12:32;101636.81;;;23.80;100.00
32324;BME280;25666;44.350;9.222;2023-09-18T08:14:58;101624.19;;;23.85;100.00
32324;BME280;25666;44.350;9.222;2023-09-18T08:17:24;101613.56;;;23.92;100.00
32324;BME280;25666;44.350;9.222;2023-09-18T08:19:51;101609.97;;;23.85;100.00
32324;BME280;25666;44.350;9.222;2023-09-18T08:22:21;101621.00;;;23.76;100.00
32324;BME280;25666;44.350;9.222;2023-09-18T08:24:47;101638.09;;;23.72;100.00
32324;BME280;25666;44.350;9.222;2023-09-18T08:27:14;101640.13;;;23.72;100.00
32324;BME280;25666;44.350;9.222;2023-09-18T08:29:43;101628.78;;;23.68;100.00
32324;BME280;25666;44.350;9.222;2023-09-18T08:32:09;101623.91;;;23.69;100.00
32324;BME280;25666;44.350;9.222;2023-09-18T08:34:34;101601.16;;;23.69;100.00
32324;BME280;25666;44.350;9.222;2023-09-18T08:37:01;101608.78;;;23.79;100.00
32324;BME280;25666;44.350;9.222;2023-09-18T08:39:27;101597.22;;;24.00;100.00
32324;BME280;25666;44.350;9.222;2023-09-18T08:41:59;101588.03;;;24.26;100.00
32324;BME280;25666;44.350;9.222;2023-09-18T08:44:26;101587.50;;;24.35;100.00
32324;BME280;25666;44.350;9.222;2023-09-18T08:46:54;101588.22;;;24.46;100.00
32324;BME280;25666;44.350;9.222;2023-09-18T08:49:22;101595.25;;;24.68;100.00
32324;BME280;25666;44.350;9.222;2023-09-18T08:51:50;101588.03;;;24.90;100.00
32324;BME280;25666;44.350;9.222;2023-09-18T08:54:17;101596.34;;;25.08;100.00
32324;BME280;25666;44.350;9.222;2023-09-18T08:56:43;101603.56;;;24.86;100.00
32324;BME280;25666;44.350;9.222;2023-09-18T08:59:09;101601.78;;;24.65;100.00
32324;BME280;25666;44.350;9.222;2023-09-18T09:01:35;101611.63;;;24.57;100.00
32324;BME280;25666;44.350;9.222;2023-09-18T09:04:00;101603.63;;;24.48;100.00
32324;BME280;25666;44.350;9.222;2023-09-18T09:06:26;101602.50;;;24.39;100.00
32324;BME280;25666;44.350;9.222;2023-09-18T09:08:51;101599.75;;;24.32;100.00
32324;BME280;25666;44.350;9.222;2023-09-18T09:11:17;101597.31;;;24.34;100.00
32324;BME280;25666;44.350;9.222;2023-09-18T09:13:45;101606.63;;;24.34;100.00
32324;BME280;25666;44.350;9.222;2023-09-18T09:16:12;101606.22;;;24.36;100.00
32324;BME280;25666;44.350;9.222;2023-09-18T09:18:50;101623.25;;;24.39;100.00
32324;BME280;25666;44.350;9.222;2023-09-18T09:21:15;101634.13;;;24.48;100.00
32324;BME280;25666;44.350;9.222;2023-09-18T09:23:51;101633.47;;;24.67;100.00
32324;BME280;25666;44.350;9.222;2023-09-18T09:26:20;101627.72;;;25.04;100.00
32324;BME280;25666;44.350;9.222;2023-09-18T09:28:47;101618.84;;;25.26;100.00
32324;BME280;25666;44.350;9.222;2023-09-18T09:31:27;101625.25;;;25.33;100.00
32324;BME280;25666;44.350;9.222;2023-09-18T09:33:53;101626.84;;;25.34;100.00
32324;BME280;25666;44.350;9.222;2023-09-18T09:36:20;101622.88;;;25.28;100.00
32324;BME280;25666;44.350;9.222;2023-09-18T09:38:46;101611.44;;;25.32;100.00
32324;BME280;25666;44.350;9.222;2023-09-18T09:41:15;101622.03;;;25.31;100.00
32324;BME280;25666;44.350;9.222;2023-09-18T09:43:43;101629.41;;;25.29;100.00
32324;BME280;25666;44.350;9.222;2023-09-18T09:46:15;101633.81;;;25.33;100.00
32324;BME280;25666;44.350;9.222;2023-09-18T09:49:06;101620.69;;;25.39;100.00
32324;BME280;25666;44.350;9.222;2023-09-18T09:51:32;101621.00;;;25.45;100.00
32324;BME280;25666;44.350;9.222;2023-09-18T09:53:59;101624.19;;;25.50;100.00
32324;BME280;25666;44.350;9.222;2023-09-18T09:59:06;101610.78;;;25.47;100.00
32324;BME280;25666;44.350;9.222;2023-09-18T10:01:34;101603.94;;;25.41;100.00
32324;BME280;25666;44.350;9.222;2023-09-18T10:04:09;101609.44;;;25.29;100.00
32324;BME280;25666;44.350;9.222;2023-09-18T10:06:36;101612.03;;;25.20;100.00
32324;BME280;25666;44.350;9.222;2023-09-18T10:09:03;101608.75;;;25.21;100.00
32324;BME280;25666;44.350;9.222;2023-09-18T10:11:33;101627.19;;;25.40;100.00
32324;BME280;25666;44.350;9.222;2023-09-18T10:14:09;101642.38;;;25.33;100.00
32324;BME280;25666;44.350;9.222;2023-09-18T10:16:40;101634.94;;;25.39;100.00
32324;BME280;25666;44.350;9.222;2023-09-18T10:22:39;101640.53;;;25.73;100.00
32324;BME280;25666;44.350;9.222;2023-09-18T10:25:15;101641.81;;;25.69;100.00
32324;BME280;25666;44.350;9.222;2023-09-18T10:27:47;101638.41;;;25.54;100.00
32324;BME280;25666;44.350;9.222;2023-09-18T10:30:23;101638.91;;;25.49;100.00
32324;BME280;25666;44.350;9.222;2023-09-18T10:32:51;101641.31;;;25.50;100.00
32324;BME280;25666;44.350;9.222;2023-09-18T10:35:17;101637.22;;;25.51;100.00
32324;BME280;25666;44.350;9.222;2023-09-18T10:37:46;101636.88;;;25.46;100.00
32324;BME280;25666;44.350;9.222;2023-09-18T10:40:13;101633.50;;;25.28;100.00
32324;BME280;25666;44.350;9.222;2023-09-18T10:42:40;101626.31;;;25.16;100.00
32324;BME280;25666;44.350;9.222;2023-09-18T10:45:10;101638.84;;;25.22;100.00
32324;BME280;25666;44.350;9.222;2023-09-18T10:47:40;101629.34;;;25.06;100.00
32324;BME280;25666;44.350;9.222;2023-09-18T10:50:06;101620.78;;;25.06;100.00
32324;BME280;25666;44.350;9.222;2023-09-18T10:52:34;101619.13;;;25.08;100.00
32324;BME280;25666;44.350;9.222;2023-09-18T10:55:01;101624.06;;;25.04;100.00
32324;BME280;25666;44.350;9.222;2023-09-18T10:57:35;101615.25;;;24.95;100.00
32324;BME280;25666;44.350;9.222;2023-09-18T11:00:01;101612.56;;;24.81;100.00
32324;BME280;25666;44.350;9.222;2023-09-18T11:02:40;101612.88;;;24.90;100.00
32324;BME280;25666;44.350;9.222;2023-09-18T11:05:06;101627.97;;;24.87;100.00
32324;BME280;25666;44.350;9.222;2023-09-18T11:07:32;101622.31;;;24.83;100.00
32324;BME280;25666;44.350;9.222;2023-09-18T11:09:57;101620.94;;;24.95;100.00
32324;BME280;25666;44.350;9.222;2023-09-18T11:12:43;101626.72;;;24.88;100.00
32324;BME280;25666;44.350;9.222;2023-09-18T11:15:25;101626.81;;;24.81;100.00
32324;BME280;25666;44.350;9.222;2023-09-18T11:18:01;101621.16;;;24.77;100.00
32324;BME280;25666;44.350;9.222;2023-09-18T11:20:28;101601.63;;;24.76;100.00
32324;BME280;25666;44.350;9.222;2023-09-18T11:23:16;101593.63;;;24.67;100.00
32324;BME280;25666;44.350;9.222;2023-09-18T11:25:43;101605.47;;;24.62;100.00
32324;BME280;25666;44.350;9.222;2023-09-18T11:28:22;101615.97;;;24.69;100.00
32324;BME280;25666;44.350;9.222;2023-09-18T11:30:50;101592.84;;;24.63;100.00
32324;BME280;25666;44.350;9.222;2023-09-18T11:33:32;101590.19;;;24.83;100.00
32324;BME280;25666;44.350;9.222;2023-09-18T11:36:11;101588.56;;;24.82;100.00
32324;BME280;25666;44.350;9.222;2023-09-18T11:38:54;101580.34;;;24.87;100.00
32324;BME280;25666;44.350;9.222;2023-09-18T11:41:39;101559.63;;;24.87;100.00
32324;BME280;25666;44.350;9.222;2023-09-18T11:46:49;101580.44;;;24.80;100.00
32324;BME280;25666;44.350;9.222;2023-09-18T11:49:23;101571.47;;;24.82;100.00
32324;BME280;25666;44.350;9.222;2023-09-18T11:51:52;101563.41;;;24.77;100.00
32324;BME280;25666;44.350;9.222;2023-09-18T11:54:18;101543.56;;;24.70;100.00
32324;BME280;25666;44.350;9.222;2023-09-18T11:56:44;101544.84;;;24.65;100.00
32324;BME280;25666;44.350;9.222;2023-09-18T11:59:10;101544.03;;;24.65;100.00
32324;BME280;25666;44.350;9.222;2023-09-18T12:01:37;101549.69;;;24.68;100.00
32324;BME280;25666;44.350;9.222;2023-09-18T12:04:06;101546.31;;;24.77;100.00
32324;BME280;25666;44.350;9.222;2023-09-18T12:06:38;101544.63;;;24.79;100.00
32324;BME280;25666;44.350;9.222;2023-09-18T12:09:06;101542.31;;;24.71;100.00
32324;BME280;25666;44.350;9.222;2023-09-18T12:11:33;101559.75;;;24.76;100.00
32324;BME280;25666;44.350;9.222;2023-09-18T12:14:03;101545.88;;;24.78;100.00
32324;BME280;25666;44.350;9.222;2023-09-18T12:16:29;101545.53;;;24.73;100.00
32324;BME280;25666;44.350;9.222;2023-09-18T12:18:55;101540.22;;;24.75;100.00
32324;BME280;25666;44.350;9.222;2023-09-18T12:21:22;101540.97;;;24.82;100.00
32324;BME280;25666;44.350;9.222;2023-09-18T12:23:48;101525.56;;;24.76;100.00
32324;BME280;25666;44.350;9.222;2023-09-18T12:26:16;101523.47;;;24.84;100.00
32324;BME280;25666;44.350;9.222;2023-09-18T12:28:43;101512.44;;;24.86;100.00
32324;BME280;25666;44.350;9.222;2023-09-18T12:31:11;101518.94;;;24.86;100.00
32324;BME280;25666;44.350;9.222;2023-09-18T12:33:37;101496.53;;;24.88;100.00
32324;BME280;25666;44.350;9.222;2023-09-18T12:36:05;101508.41;;;24.83;100.00
32324;BME280;25666;44.350;9.222;2023-09-18T12:38:31;101511.69;;;24.82;100.00
32324;BME280;25666;44.350;9.222;2023-09-18T12:40:58;101512.00;;;24.87;100.00
32324;BME280;25666;44.350;9.222;2023-09-18T12:43:49;101514.75;;;24.94;100.00
32324;BME280;25666;44.350;9.222;2023-09-18T12:46:15;101507.88;;;24.92;100.00
32324;BME280;25666;44.350;9.222;2023-09-18T12:48:41;101498.97;;;24.90;100.00
32324;BME280;25666;44.350;9.222;2023-09-18T12:51:11;101509.59;;;24.86;100.00
32324;BME280;25666;44.350;9.222;2023-09-18T12:53:37;101502.34;;;24.78;100.00